createdAt,value
2018-05-10T00:00:58.774Z,16.10
2018-05-10T00:03:26.318Z,16.10
2018-05-10T00:05:53.882Z,16.00
2018-05-10T00:08:21.444Z,16.10
2018-05-10T00:10:49.007Z,16.20
2018-05-10T00:13:16.533Z,16.10
2018-05-10T00:15:44.902Z,16.10
2018-05-10T00:18:12.429Z,16.10
2018-05-10T00:20:39.986Z,16.00
2018-05-10T00:23:07.554Z,16.00
2018-05-10T00:25:35.123Z,16.00
2018-05-10T00:28:02.672Z,16.00
2018-05-10T00:30:30.255Z,15.90
2018-05-10T00:32:57.813Z,15.90
2018-05-10T00:35:25.354Z,15.90
2018-05-10T00:37:52.877Z,15.90
2018-05-10T00:40:20.442Z,15.80
2018-05-10T00:42:48.011Z,15.70
2018-05-10T00:45:15.561Z,15.60
2018-05-10T00:47:43.125Z,15.50
2018-05-10T00:50:10.696Z,15.50
2018-05-10T00:52:38.263Z,15.50
2018-05-10T00:55:05.827Z,15.60
2018-05-10T00:57:33.386Z,15.60
2018-05-10T01:00:00.988Z,15.70
2018-05-10T01:02:28.566Z,15.60
2018-05-10T01:04:56.181Z,15.70
2018-05-10T01:07:23.700Z,15.60
2018-05-10T01:09:51.264Z,15.60
2018-05-10T01:12:18.839Z,15.60
2018-05-10T01:14:46.379Z,15.60
2018-05-10T01:17:13.925Z,15.60
2018-05-10T01:19:42.227Z,15.60
2018-05-10T01:22:09.786Z,15.50
2018-05-10T01:24:37.317Z,15.50
2018-05-10T01:27:04.847Z,15.40
2018-05-10T01:29:32.410Z,15.50
2018-05-10T01:31:59.959Z,15.50
2018-05-10T01:34:27.518Z,15.50
2018-05-10T01:36:55.065Z,15.50
2018-05-10T01:39:22.602Z,15.40
2018-05-10T01:41:50.146Z,15.40
2018-05-10T01:44:17.711Z,15.40
2018-05-10T01:46:45.254Z,15.30
2018-05-10T01:49:12.796Z,15.30
2018-05-10T01:51:40.340Z,15.20
2018-05-10T01:54:08.647Z,15.20
2018-05-10T01:56:36.186Z,15.20
2018-05-10T01:59:04.494Z,15.00
2018-05-10T02:01:32.034Z,15.00
2018-05-10T02:03:59.574Z,15.00
2018-05-10T02:06:27.100Z,14.80
2018-05-10T02:08:54.658Z,14.80
2018-05-10T02:11:22.194Z,14.70
2018-05-10T02:13:49.741Z,14.70
2018-05-10T02:16:18.046Z,14.60
2018-05-10T02:18:45.569Z,14.60
2018-05-10T02:21:13.117Z,14.60
2018-05-10T02:23:40.670Z,14.70
2018-05-10T02:26:08.207Z,14.70
2018-05-10T02:28:35.733Z,14.80
2018-05-10T02:31:04.053Z,14.80
2018-05-10T02:33:31.609Z,14.80
2018-05-10T02:35:59.215Z,14.90
2018-05-10T02:38:26.778Z,14.90
2018-05-10T02:40:54.329Z,14.90
2018-05-10T02:43:21.870Z,14.90
2018-05-10T02:45:49.397Z,15.00
2018-05-10T02:48:16.930Z,15.00
2018-05-10T02:50:44.460Z,15.00
2018-05-10T02:53:11.989Z,15.00
2018-05-10T02:55:39.546Z,14.90
2018-05-10T02:58:07.098Z,14.90
2018-05-10T03:00:34.640Z,14.90
2018-05-10T03:03:02.194Z,14.90
2018-05-10T03:05:29.734Z,14.80
2018-05-10T03:07:57.295Z,14.70
2018-05-10T03:10:24.858Z,14.70
2018-05-10T03:12:52.449Z,14.70
2018-05-10T03:15:20.014Z,14.60
2018-05-10T03:17:47.554Z,14.50
2018-05-10T03:20:15.126Z,14.50
2018-05-10T03:22:42.691Z,14.50
2018-05-10T03:25:10.231Z,14.40
2018-05-10T03:27:38.536Z,14.30
2018-05-10T03:30:06.079Z,14.30
2018-05-10T03:32:34.371Z,14.20
2018-05-10T03:35:01.932Z,14.20
2018-05-10T03:37:29.469Z,14.10
2018-05-10T03:39:57.017Z,14.00
2018-05-10T03:42:24.549Z,14.00
2018-05-10T03:44:52.083Z,14.00
2018-05-10T03:47:19.649Z,14.00
2018-05-10T03:49:47.235Z,14.10
2018-05-10T03:52:14.774Z,14.00
2018-05-10T03:54:43.088Z,14.50
2018-05-10T03:57:10.616Z,14.50
2018-05-10T03:59:38.978Z,15.00
2018-05-10T04:02:06.544Z,15.00
2018-05-10T04:04:46.049Z,15.10
2018-05-10T04:07:25.497Z,15.10
2018-05-10T04:10:04.847Z,15.10
2018-05-10T04:12:32.389Z,15.10
2018-05-10T04:14:59.940Z,15.20
2018-05-10T04:17:27.482Z,15.20
2018-05-10T04:19:55.047Z,15.20
2018-05-10T04:22:22.590Z,15.30
2018-05-10T04:24:50.946Z,15.40
2018-05-10T04:27:18.515Z,15.40
2018-05-10T04:29:46.054Z,15.50
2018-05-10T04:32:13.591Z,15.50
2018-05-10T04:34:41.155Z,15.60
2018-05-10T04:37:08.689Z,15.70
2018-05-10T04:39:37.004Z,15.80
2018-05-10T04:42:04.566Z,15.80
2018-05-10T04:44:32.126Z,15.90
2018-05-10T04:46:59.657Z,15.90
2018-05-10T04:49:27.999Z,16.10
2018-05-10T04:51:55.552Z,16.10
2018-05-10T04:54:23.159Z,16.20
2018-05-10T04:56:51.467Z,16.40
2018-05-10T04:59:19.015Z,16.30
2018-05-10T05:01:47.341Z,16.60
2018-05-10T05:04:14.902Z,16.60
2018-05-10T05:06:42.444Z,16.70
2018-05-10T05:09:09.969Z,16.70
2018-05-10T05:11:37.495Z,16.90
2018-05-10T05:14:05.031Z,17.00
2018-05-10T05:16:32.592Z,17.10
2018-05-10T05:19:00.158Z,17.20
2018-05-10T05:21:27.771Z,17.70
2018-05-10T05:23:55.283Z,18.10
2018-05-10T05:26:22.882Z,18.40
2018-05-10T05:28:50.455Z,18.30
2018-05-10T05:31:17.998Z,18.30
2018-05-10T05:33:45.535Z,18.60
2018-05-10T05:36:13.844Z,19.00
2018-05-10T05:38:41.414Z,19.00
2018-05-10T05:41:09.027Z,19.10
2018-05-10T05:43:36.567Z,19.20
2018-05-10T05:46:04.066Z,19.30
2018-05-10T05:48:31.650Z,19.30
2018-05-10T05:50:59.214Z,19.30
2018-05-10T05:53:26.758Z,19.60
2018-05-10T05:55:55.059Z,20.00
2018-05-10T05:58:22.599Z,20.00
2018-05-10T06:00:50.980Z,20.50
2018-05-10T06:03:18.505Z,20.50
2018-05-10T06:05:46.064Z,20.50
2018-05-10T06:08:13.614Z,20.60
2018-05-10T06:10:41.172Z,20.50
2018-05-10T06:13:08.715Z,20.70
2018-05-10T06:15:36.304Z,20.70
2018-05-10T06:18:03.863Z,20.80
2018-05-10T06:20:31.390Z,20.80
2018-05-10T06:22:59.719Z,21.40
2018-05-10T06:25:27.263Z,21.40
2018-05-10T06:27:54.812Z,22.00
2018-05-10T06:30:22.364Z,22.40
2018-05-10T06:32:50.686Z,21.90
2018-05-10T06:35:18.238Z,21.90
2018-05-10T06:37:45.826Z,22.20
2018-05-10T06:40:13.432Z,22.60
2018-05-10T06:42:41.767Z,22.40
2018-05-10T06:45:09.301Z,22.40
2018-05-10T06:47:36.853Z,22.40
2018-05-10T06:50:05.167Z,23.00
2018-05-10T06:52:32.702Z,23.00
2018-05-10T06:55:01.090Z,23.80
2018-05-10T06:57:28.656Z,23.70
2018-05-10T06:59:56.194Z,23.60
2018-05-10T07:02:23.735Z,23.70
2018-05-10T07:04:51.291Z,23.40
2018-05-10T07:07:18.858Z,23.30
2018-05-10T07:09:46.460Z,23.40
2018-05-10T07:12:13.988Z,23.00
2018-05-10T07:14:41.525Z,22.90
2018-05-10T07:17:09.082Z,22.70
2018-05-10T07:19:36.635Z,22.50
2018-05-10T07:22:04.173Z,22.40
2018-05-10T07:24:32.511Z,22.40
2018-05-10T07:27:00.090Z,22.30
2018-05-10T07:29:27.629Z,22.20
2018-05-10T07:31:55.194Z,22.10
2018-05-10T07:34:22.762Z,22.20
2018-05-10T07:36:50.358Z,22.10
2018-05-10T07:39:18.002Z,22.10
2018-05-10T07:41:45.567Z,22.10
2018-05-10T07:44:13.140Z,22.20
2018-05-10T07:46:40.689Z,22.20
2018-05-10T07:49:08.262Z,22.40
2018-05-10T07:51:35.845Z,22.60
2018-05-10T07:54:03.515Z,22.70
2018-05-10T07:56:31.853Z,22.70
2018-05-10T07:58:59.409Z,22.70
2018-05-10T08:01:26.991Z,22.70
2018-05-10T08:03:54.570Z,22.50
2018-05-10T08:06:22.163Z,22.40
2018-05-10T08:08:49.702Z,22.50
2018-05-10T08:11:17.254Z,22.60
2018-05-10T08:13:44.815Z,22.80
2018-05-10T08:16:12.436Z,22.80
2018-05-10T08:18:40.027Z,22.90
2018-05-10T08:21:07.599Z,22.90
2018-05-10T08:23:47.091Z,23.00
2018-05-10T08:26:15.447Z,23.50
2018-05-10T08:28:43.024Z,23.50
2018-05-10T08:31:10.585Z,23.40
2018-05-10T08:33:38.156Z,23.30
2018-05-10T08:36:05.730Z,23.20
2018-05-10T08:38:34.067Z,23.10
2018-05-10T08:41:01.679Z,23.00
2018-05-10T08:43:29.993Z,23.00
2018-05-10T08:45:57.546Z,23.00
2018-05-10T08:48:25.104Z,22.90
2018-05-10T08:50:52.660Z,22.90
2018-05-10T08:53:21.003Z,23.40
2018-05-10T08:55:48.554Z,23.40
2018-05-10T08:58:16.127Z,23.50
2018-05-10T09:00:43.675Z,23.50
2018-05-10T09:03:11.213Z,23.20
2018-05-10T09:05:38.782Z,23.40
2018-05-10T09:08:06.344Z,23.40
2018-05-10T09:10:34.677Z,23.60
2018-05-10T09:13:02.213Z,23.70
2018-05-10T09:15:29.770Z,23.60
2018-05-10T09:17:57.301Z,23.60
2018-05-10T09:20:25.597Z,23.60
2018-05-10T09:22:53.129Z,23.60
2018-05-10T09:25:20.675Z,23.60
2018-05-10T09:27:48.246Z,23.60
2018-05-10T09:30:15.822Z,23.90
2018-05-10T09:32:44.152Z,24.40
2018-05-10T09:35:11.732Z,24.40
2018-05-10T09:37:39.299Z,24.80
2018-05-10T09:40:06.847Z,25.10
2018-05-10T09:42:34.407Z,25.30
2018-05-10T09:45:01.977Z,25.50
2018-05-10T09:47:29.556Z,25.20
2018-05-10T09:49:57.085Z,25.30
2018-05-10T09:52:24.639Z,25.00
2018-05-10T09:54:52.942Z,24.50
2018-05-10T09:57:20.499Z,24.50
2018-05-10T09:59:48.131Z,24.50
2018-05-10T10:02:15.645Z,24.50
2018-05-10T10:04:43.220Z,24.60
2018-05-10T10:07:10.770Z,24.60
2018-05-10T10:09:38.302Z,24.40
2018-05-10T10:12:06.626Z,24.50
2018-05-10T10:14:34.177Z,24.50
2018-05-10T10:17:01.727Z,24.90
2018-05-10T10:19:29.263Z,25.30
2018-05-10T10:21:56.817Z,25.50
2018-05-10T10:24:24.349Z,25.30
2018-05-10T10:26:51.888Z,25.40
2018-05-10T10:29:19.427Z,25.40
2018-05-10T10:31:47.751Z,25.30
2018-05-10T10:34:15.305Z,25.30
2018-05-10T10:36:42.866Z,25.80
2018-05-10T10:39:10.404Z,26.20
2018-05-10T10:41:38.751Z,25.80
2018-05-10T10:44:06.319Z,25.80
2018-05-10T10:46:33.867Z,25.90
2018-05-10T10:49:01.435Z,25.90
2018-05-10T10:51:29.001Z,26.10
2018-05-10T10:53:56.616Z,25.90
2018-05-10T10:56:24.099Z,25.90
2018-05-10T10:58:51.634Z,25.20
2018-05-10T11:01:19.952Z,24.60
2018-05-10T11:03:47.543Z,24.60
2018-05-10T11:06:15.083Z,24.80
2018-05-10T11:08:42.623Z,25.20
2018-05-10T11:11:10.177Z,25.60
2018-05-10T11:13:37.742Z,25.80
2018-05-10T11:16:05.370Z,26.20
2018-05-10T11:18:32.900Z,26.40
2018-05-10T11:21:00.435Z,26.40
2018-05-10T11:23:27.988Z,26.70
2018-05-10T11:25:56.304Z,26.40
2018-05-10T11:28:23.837Z,26.40
2018-05-10T11:30:52.170Z,26.10
2018-05-10T11:33:19.737Z,26.10
2018-05-10T11:35:47.262Z,25.60
2018-05-10T11:38:14.822Z,25.50
2018-05-10T11:40:42.416Z,25.40
2018-05-10T11:43:09.979Z,25.30
2018-05-10T11:45:37.526Z,25.20
2018-05-10T11:48:05.072Z,25.40
2018-05-10T11:50:33.402Z,26.00
2018-05-10T11:53:00.951Z,26.00
2018-05-10T11:55:28.506Z,26.30
2018-05-10T11:57:56.043Z,26.80
2018-05-10T12:00:24.378Z,26.60
2018-05-10T12:02:51.924Z,26.60
2018-05-10T12:05:19.511Z,26.60
2018-05-10T12:07:47.074Z,26.40
2018-05-10T12:10:14.618Z,26.40
2018-05-10T12:12:42.170Z,26.40
2018-05-10T12:15:09.719Z,26.50
2018-05-10T12:17:37.260Z,26.40
2018-05-10T12:20:04.870Z,25.90
2018-05-10T12:22:32.411Z,26.10
2018-05-10T12:24:59.950Z,26.20
2018-05-10T12:27:28.264Z,26.20
2018-05-10T12:29:55.797Z,26.20
2018-05-10T12:32:23.342Z,26.10
2018-05-10T12:34:50.898Z,26.10
2018-05-10T12:37:18.443Z,26.10
2018-05-10T12:39:46.015Z,26.20
2018-05-10T12:42:13.561Z,26.00
2018-05-10T12:44:41.119Z,25.80
2018-05-10T12:47:08.673Z,25.70
2018-05-10T12:49:36.243Z,25.50
2018-05-10T12:52:03.797Z,25.20
2018-05-10T12:54:31.342Z,24.90
2018-05-10T12:56:59.666Z,24.70
2018-05-10T12:59:27.274Z,24.70
2018-05-10T13:01:54.837Z,24.60
2018-05-10T13:04:22.379Z,24.50
2018-05-10T13:06:49.938Z,24.40
2018-05-10T13:09:17.477Z,24.40
2018-05-10T13:11:45.009Z,24.30
2018-05-10T13:14:13.329Z,24.30
2018-05-10T13:16:40.884Z,24.30
2018-05-10T13:19:08.457Z,24.20
2018-05-10T13:21:36.153Z,24.10
2018-05-10T13:24:03.658Z,24.10
2018-05-10T13:26:31.206Z,24.00
2018-05-10T13:28:58.805Z,24.00
2018-05-10T13:31:26.312Z,24.00
2018-05-10T13:33:53.864Z,24.00
2018-05-10T13:36:21.431Z,24.00
2018-05-10T13:38:48.961Z,24.10
2018-05-10T13:41:16.506Z,24.00
2018-05-10T13:43:44.834Z,24.10
2018-05-10T13:46:12.395Z,24.10
2018-05-10T13:48:39.964Z,24.00
2018-05-10T13:51:07.510Z,23.90
2018-05-10T13:53:35.066Z,23.80
2018-05-10T13:56:02.649Z,23.70
2018-05-10T13:58:30.214Z,23.60
2018-05-10T14:00:57.809Z,23.50
2018-05-10T14:03:25.375Z,23.50
2018-05-10T14:05:52.918Z,23.40
2018-05-10T14:08:20.459Z,23.30
2018-05-10T14:10:48.064Z,23.30
2018-05-10T14:13:15.550Z,23.20
2018-05-10T14:15:43.854Z,23.20
2018-05-10T14:18:11.416Z,23.20
2018-05-10T14:20:38.955Z,23.20
2018-05-10T14:23:07.250Z,23.30
2018-05-10T14:25:34.814Z,23.30
2018-05-10T14:28:02.372Z,23.40
2018-05-10T14:30:30.665Z,23.70
2018-05-10T14:32:58.259Z,23.60
2018-05-10T14:35:25.822Z,23.90
2018-05-10T14:37:53.387Z,24.40
2018-05-10T14:40:20.948Z,25.00
2018-05-10T14:42:48.534Z,25.00
2018-05-10T14:45:16.072Z,25.00
2018-05-10T14:47:43.606Z,24.70
2018-05-10T14:50:11.898Z,24.70
2018-05-10T14:52:39.501Z,24.70
2018-05-10T14:55:07.052Z,24.70
2018-05-10T14:57:34.602Z,24.50
2018-05-10T15:00:02.153Z,24.40
2018-05-10T15:02:29.704Z,24.40
2018-05-10T15:04:58.039Z,24.50
2018-05-10T15:07:25.606Z,24.50
2018-05-10T15:09:53.222Z,24.30
2018-05-10T15:12:20.754Z,24.30
2018-05-10T15:14:48.320Z,24.40
2018-05-10T15:17:15.863Z,24.50
2018-05-10T15:19:43.395Z,24.70
2018-05-10T15:22:10.932Z,24.60
2018-05-10T15:24:39.249Z,24.40
2018-05-10T15:27:06.851Z,24.40
2018-05-10T15:29:34.419Z,24.20
2018-05-10T15:32:01.978Z,23.90
2018-05-10T15:34:29.509Z,23.70
2018-05-10T15:36:57.036Z,23.50
2018-05-10T15:39:24.586Z,23.20
2018-05-10T15:41:52.927Z,22.80
2018-05-10T15:44:20.591Z,22.80
2018-05-10T15:46:48.124Z,22.40
2018-05-10T15:49:15.691Z,22.10
2018-05-10T15:51:43.326Z,22.20
2018-05-10T15:54:10.846Z,22.20
2018-05-10T15:56:38.447Z,22.10
2018-05-10T15:59:06.019Z,22.00
2018-05-10T16:01:34.360Z,22.00
2018-05-10T16:04:01.926Z,22.00
2018-05-10T16:06:29.495Z,22.10
2018-05-10T16:08:57.066Z,22.10
2018-05-10T16:11:24.624Z,22.20
2018-05-10T16:13:52.188Z,21.80
2018-05-10T16:16:19.767Z,21.30
2018-05-10T16:18:47.318Z,21.10
2018-05-10T16:21:14.876Z,20.80
2018-05-10T16:23:42.412Z,20.70
2018-05-10T16:26:10.887Z,20.60
2018-05-10T16:28:38.416Z,20.70
2018-05-10T16:31:05.983Z,20.60
2018-05-10T16:33:33.539Z,20.60
2018-05-10T16:36:01.102Z,20.50
2018-05-10T16:38:28.666Z,20.40
2018-05-10T16:40:56.197Z,20.20
2018-05-10T16:43:23.778Z,20.20
2018-05-10T16:45:51.305Z,20.10
2018-05-10T16:48:18.843Z,20.00
2018-05-10T16:50:47.171Z,19.80
2018-05-10T16:53:14.817Z,19.70
2018-05-10T16:55:43.108Z,19.50
2018-05-10T16:58:10.671Z,19.50
2018-05-10T17:00:38.258Z,19.40
2018-05-10T17:03:05.805Z,19.40
2018-05-10T17:05:33.366Z,19.50
2018-05-10T17:08:00.931Z,19.50
2018-05-10T17:10:28.536Z,19.60
2018-05-10T17:12:56.097Z,19.60
2018-05-10T17:15:23.667Z,19.40
2018-05-10T17:17:51.221Z,19.10
2018-05-10T17:20:18.773Z,18.80
2018-05-10T17:22:46.343Z,18.60
2018-05-10T17:25:13.897Z,18.40
2018-05-10T17:27:41.458Z,18.00
2018-05-10T17:30:08.999Z,17.90
2018-05-10T17:32:36.566Z,17.70
2018-05-10T17:35:04.178Z,17.70
2018-05-10T17:37:31.719Z,17.50
2018-05-10T17:39:59.350Z,17.10
2018-05-10T17:42:26.865Z,17.10
2018-05-10T17:44:54.407Z,17.00
2018-05-10T17:47:21.954Z,16.90
2018-05-10T17:49:49.492Z,16.70
2018-05-10T17:52:17.809Z,17.20
2018-05-10T17:54:45.350Z,17.20
2018-05-10T17:57:12.897Z,17.40
2018-05-10T17:59:41.227Z,17.50
2018-05-10T18:02:08.819Z,17.50
2018-05-10T18:04:36.359Z,17.40
2018-05-10T18:07:03.893Z,17.10
2018-05-10T18:09:31.421Z,17.10
2018-05-10T18:11:58.954Z,17.20
2018-05-10T18:14:26.487Z,17.10
2018-05-10T18:16:54.009Z,17.00
2018-05-10T18:19:21.558Z,16.80
2018-05-10T18:21:49.123Z,16.60
2018-05-10T18:24:16.685Z,16.50
2018-05-10T18:26:44.357Z,16.30
2018-05-10T18:29:11.919Z,16.40
2018-05-10T18:31:39.485Z,16.60
2018-05-10T18:34:07.050Z,16.50
2018-05-10T18:36:34.590Z,16.30
2018-05-10T18:39:02.150Z,16.00
2018-05-10T18:41:29.759Z,15.70
2018-05-10T18:43:58.082Z,15.40
2018-05-10T18:46:25.682Z,15.40
2018-05-10T18:48:53.228Z,15.50
2018-05-10T18:51:20.795Z,15.60
2018-05-10T18:53:48.358Z,15.60
2018-05-10T18:56:15.926Z,15.80
2018-05-10T18:58:43.490Z,15.90
2018-05-10T19:01:11.077Z,16.00
2018-05-10T19:03:38.683Z,15.80
2018-05-10T19:06:06.237Z,15.80
2018-05-10T19:08:34.544Z,15.80
2018-05-10T19:11:02.135Z,15.80
2018-05-10T19:13:29.702Z,15.70
2018-05-10T19:15:57.264Z,15.50
2018-05-10T19:18:24.815Z,15.40
2018-05-10T19:20:52.364Z,15.40
2018-05-10T19:23:19.903Z,15.30
2018-05-10T19:25:47.450Z,15.30
2018-05-10T19:28:15.036Z,15.30
2018-05-10T19:30:42.583Z,15.20
2018-05-10T19:33:10.873Z,15.10
2018-05-10T19:35:39.184Z,15.00
2018-05-10T19:38:06.740Z,15.00
2018-05-10T19:40:34.276Z,15.00
2018-05-10T19:43:02.645Z,14.90
2018-05-10T19:45:30.184Z,14.90
2018-05-10T19:47:57.746Z,14.90
2018-05-10T19:50:25.273Z,15.10
2018-05-10T19:52:52.809Z,15.10
2018-05-10T19:55:20.370Z,15.00
2018-05-10T19:57:48.680Z,14.70
2018-05-10T20:00:16.230Z,14.70
2018-05-10T20:02:44.545Z,14.80
2018-05-10T20:05:12.098Z,14.70
2018-05-10T20:07:39.652Z,14.70
2018-05-10T20:10:07.217Z,14.80
2018-05-10T20:12:34.759Z,14.80
2018-05-10T20:15:03.073Z,14.70
2018-05-10T20:17:30.629Z,14.70
2018-05-10T20:19:58.159Z,14.70
2018-05-10T20:22:25.700Z,14.70
2018-05-10T20:24:53.262Z,14.60
2018-05-10T20:27:20.823Z,14.50
2018-05-10T20:29:48.388Z,14.50
2018-05-10T20:32:16.010Z,14.40
2018-05-10T20:34:44.382Z,14.70
2018-05-10T20:37:12.687Z,14.80
2018-05-10T20:39:40.253Z,14.80
2018-05-10T20:42:07.794Z,14.70
2018-05-10T20:44:35.371Z,14.70
2018-05-10T20:47:02.944Z,14.90
2018-05-10T20:49:30.510Z,15.00
2018-05-10T20:51:58.054Z,14.80
2018-05-10T20:54:25.603Z,14.80
2018-05-10T20:56:53.985Z,15.00
2018-05-10T20:59:21.535Z,15.00
2018-05-10T21:01:49.100Z,14.80
2018-05-10T21:04:16.696Z,14.70
2018-05-10T21:06:44.213Z,14.70
2018-05-10T21:09:11.756Z,14.70
2018-05-10T21:11:40.329Z,14.70
2018-05-10T21:14:07.891Z,14.60
2018-05-10T21:16:39.013Z,14.60
2018-05-10T21:19:06.655Z,14.60
2018-05-10T21:21:34.281Z,14.60
2018-05-10T21:24:02.093Z,14.60
2018-05-10T21:26:29.697Z,14.60
2018-05-10T21:28:57.258Z,14.60
2018-05-10T21:31:24.819Z,14.60
2018-05-10T21:33:52.440Z,14.60
2018-05-10T21:36:20.697Z,14.50
2018-05-10T21:38:48.268Z,14.50
2018-05-10T21:41:15.811Z,14.50
2018-05-10T21:43:43.378Z,14.40
2018-05-10T21:46:10.956Z,14.40
2018-05-10T21:48:38.513Z,14.40
2018-05-10T21:51:06.052Z,14.40
2018-05-10T21:53:33.586Z,14.40
2018-05-10T21:56:01.204Z,14.40
2018-05-10T21:58:28.753Z,14.30
2018-05-10T22:00:56.297Z,14.40
2018-05-10T22:03:24.632Z,14.40
2018-05-10T22:05:52.199Z,14.40
2018-05-10T22:08:19.736Z,14.50
2018-05-10T22:10:47.279Z,14.40
2018-05-10T22:13:14.842Z,14.40
2018-05-10T22:15:42.382Z,14.50
2018-05-10T22:18:10.727Z,14.30
2018-05-10T22:20:38.290Z,14.30
2018-05-10T22:23:05.858Z,14.30
2018-05-10T22:25:33.417Z,14.30
2018-05-10T22:28:00.953Z,14.20
2018-05-10T22:30:28.489Z,14.20
2018-05-10T22:32:56.861Z,14.20
2018-05-10T22:35:25.242Z,14.20
2018-05-10T22:37:52.743Z,14.20
2018-05-10T22:40:20.287Z,14.20
2018-05-10T22:42:48.583Z,14.20
2018-05-10T22:45:16.152Z,14.20
2018-05-10T22:47:43.706Z,14.30
2018-05-10T22:50:11.256Z,14.30
2018-05-10T22:52:39.566Z,14.30
2018-05-10T22:55:07.125Z,14.30
2018-05-10T22:57:34.660Z,14.30
2018-05-10T23:00:03.015Z,14.30
2018-05-10T23:02:30.549Z,14.30
2018-05-10T23:04:58.102Z,14.30
2018-05-10T23:07:25.659Z,14.30
2018-05-10T23:09:53.246Z,14.20
2018-05-10T23:12:20.810Z,14.20
2018-05-10T23:14:48.375Z,14.20
2018-05-10T23:17:15.924Z,14.30
2018-05-10T23:19:43.461Z,14.40
2018-05-10T23:22:11.770Z,14.40
2018-05-10T23:24:39.370Z,14.40
2018-05-10T23:27:06.910Z,14.40
2018-05-10T23:29:34.471Z,14.40
2018-05-10T23:32:02.026Z,14.30
2018-05-10T23:34:29.560Z,14.40
2018-05-10T23:36:57.877Z,14.40
2018-05-10T23:39:25.422Z,14.30
2018-05-10T23:41:52.986Z,14.30
2018-05-10T23:44:20.521Z,14.30
2018-05-10T23:46:48.107Z,14.30
2018-05-10T23:49:16.405Z,14.30
2018-05-10T23:51:43.995Z,14.40
2018-05-10T23:54:11.529Z,14.40
2018-05-10T23:56:39.143Z,14.40
2018-05-10T23:59:06.670Z,14.40
